sensor_id;sensor_type;location;lat;lon;timestamp;P1;durP1;ratioP1;P2;durP2;ratioP2
3547;SDS011;1788;49.400;11.092;2023-11-21T00:02:22;3.30;;;2.63;;
3547;SDS011;1788;49.400;11.092;2023-11-21T00:04:49;3.17;;;1.40;;
3547;SDS011;1788;49.400;11.092;2023-11-21T00:07:15;2.43;;;1.83;;
3547;SDS011;1788;49.400;11.092;2023-11-21T00:09:42;1.77;;;1.70;;
3547;SDS011;1788;49.400;11.092;2023-11-21T00:12:08;2.03;;;1.40;;
3547;SDS011;1788;49.400;11.092;2023-11-21T00:14:36;2.97;;;1.70;;
3547;SDS011;1788;49.400;11.092;2023-11-21T00:17:02;1.17;;;1.13;;
3547;SDS011;1788;49.400;11.092;2023-11-21T00:19:29;1.40;;;1.30;;
3547;SDS011;1788;49.400;11.092;2023-11-21T00:21:55;1.90;;;1.50;;
3547;SDS011;1788;49.400;11.092;2023-11-21T00:24:23;1.40;;;1.30;;
3547;SDS011;1788;49.400;11.092;2023-11-21T00:26:50;1.77;;;1.63;;
3547;SDS011;1788;49.400;11.092;2023-11-21T00:29:16;4.73;;;1.63;;
3547;SDS011;1788;49.400;11.092;2023-11-21T00:31:43;1.20;;;1.10;;
3547;SDS011;1788;49.400;11.092;2023-11-21T00:34:11;1.50;;;1.40;;
3547;SDS011;1788;49.400;11.092;2023-11-21T00:36:36;1.70;;;1.60;;
3547;SDS011;1788;49.400;11.092;2023-11-21T00:39:03;2.03;;;1.93;;
3547;SDS011;1788;49.400;11.092;2023-11-21T00:41:29;2.77;;;1.60;;
3547;SDS011;1788;49.400;11.092;2023-11-21T00:43:57;2.80;;;1.73;;
3547;SDS011;1788;49.400;11.092;2023-11-21T00:46:23;2.43;;;1.50;;
3547;SDS011;1788;49.400;11.092;2023-11-21T00:48:50;2.10;;;1.53;;
3547;SDS011;1788;49.400;11.092;2023-11-21T00:51:17;2.00;;;1.90;;
3547;SDS011;1788;49.400;11.092;2023-11-21T00:53:43;3.80;;;2.07;;
3547;SDS011;1788;49.400;11.092;2023-11-21T00:56:10;3.70;;;2.13;;
3547;SDS011;1788;49.400;11.092;2023-11-21T00:58:37;1.93;;;1.43;;
3547;SDS011;1788;49.400;11.092;2023-11-21T01:01:03;2.03;;;1.93;;
3547;SDS011;1788;49.400;11.092;2023-11-21T01:03:30;1.67;;;1.63;;
3547;SDS011;1788;49.400;11.092;2023-11-21T01:05:57;3.23;;;1.70;;
3547;SDS011;1788;49.400;11.092;2023-11-21T01:08:24;2.13;;;1.87;;
3547;SDS011;1788;49.400;11.092;2023-11-21T01:10:51;2.17;;;1.70;;
3547;SDS011;1788;49.400;11.092;2023-11-21T01:13:20;2.50;;;1.80;;
3547;SDS011;1788;49.400;11.092;2023-11-21T01:15:47;1.97;;;1.87;;
3547;SDS011;1788;49.400;11.092;2023-11-21T01:18:14;2.63;;;2.13;;
3547;SDS011;1788;49.400;11.092;2023-11-21T01:20:41;1.93;;;1.60;;
3547;SDS011;1788;49.400;11.092;2023-11-21T01:23:08;2.73;;;1.70;;
3547;SDS011;1788;49.400;11.092;2023-11-21T01:25:35;3.37;;;1.60;;
3547;SDS011;1788;49.400;11.092;2023-11-21T01:28:01;1.63;;;1.57;;
3547;SDS011;1788;49.400;11.092;2023-11-21T01:30:28;2.47;;;1.53;;
3547;SDS011;1788;49.400;11.092;2023-11-21T01:32:55;1.77;;;1.67;;
3547;SDS011;1788;49.400;11.092;2023-11-21T01:35:21;2.37;;;1.70;;
3547;SDS011;1788;49.400;11.092;2023-11-21T01:37:49;2.63;;;1.67;;
3547;SDS011;1788;49.400;11.092;2023-11-21T01:40:15;1.90;;;1.80;;
3547;SDS011;1788;49.400;11.092;2023-11-21T01:42:43;1.33;;;1.23;;
3547;SDS011;1788;49.400;11.092;2023-11-21T01:45:09;3.77;;;1.63;;
3547;SDS011;1788;49.400;11.092;2023-11-21T01:47:37;4.20;;;1.70;;
3547;SDS011;1788;49.400;11.092;2023-11-21T01:50:03;1.90;;;1.83;;
3547;SDS011;1788;49.400;11.092;2023-11-21T01:52:31;2.23;;;1.70;;
3547;SDS011;1788;49.400;11.092;2023-11-21T01:54:57;2.03;;;1.50;;
3547;SDS011;1788;49.400;11.092;2023-11-21T01:57:25;2.77;;;1.60;;
3547;SDS011;1788;49.400;11.092;2023-11-21T01:59:51;3.43;;;1.70;;
3547;SDS011;1788;49.400;11.092;2023-11-21T02:02:19;1.87;;;1.43;;
3547;SDS011;1788;49.400;11.092;2023-11-21T02:04:45;3.33;;;1.37;;
3547;SDS011;1788;49.400;11.092;2023-11-21T02:07:12;2.03;;;1.93;;
3547;SDS011;1788;49.400;11.092;2023-11-21T02:09:39;1.40;;;1.37;;
3547;SDS011;1788;49.400;11.092;2023-11-21T02:12:06;1.63;;;1.57;;
3547;SDS011;1788;49.400;11.092;2023-11-21T02:14:32;5.43;;;1.70;;
3547;SDS011;1788;49.400;11.092;2023-11-21T02:16:59;1.83;;;1.50;;
3547;SDS011;1788;49.400;11.092;2023-11-21T02:19:26;2.63;;;1.97;;
3547;SDS011;1788;49.400;11.092;2023-11-21T02:21:52;1.67;;;1.57;;
3547;SDS011;1788;49.400;11.092;2023-11-21T02:24:21;2.57;;;1.90;;
3547;SDS011;1788;49.400;11.092;2023-11-21T02:26:46;2.37;;;1.70;;
3547;SDS011;1788;49.400;11.092;2023-11-21T02:29:14;2.50;;;1.60;;
3547;SDS011;1788;49.400;11.092;2023-11-21T02:31:40;2.73;;;1.73;;
3547;SDS011;1788;49.400;11.092;2023-11-21T02:34:08;1.80;;;1.50;;
3547;SDS011;1788;49.400;11.092;2023-11-21T02:36:34;1.60;;;1.50;;
3547;SDS011;1788;49.400;11.092;2023-11-21T02:39:01;1.47;;;1.37;;
3547;SDS011;1788;49.400;11.092;2023-11-21T02:41:28;1.80;;;1.60;;
3547;SDS011;1788;49.400;11.092;2023-11-21T02:43:54;1.57;;;1.47;;
3547;SDS011;1788;49.400;11.092;2023-11-21T02:46:21;1.67;;;1.57;;
3547;SDS011;1788;49.400;11.092;2023-11-21T02:48:48;2.37;;;2.00;;
3547;SDS011;1788;49.400;11.092;2023-11-21T02:51:15;3.30;;;1.57;;
3547;SDS011;1788;49.400;11.092;2023-11-21T02:53:44;1.63;;;1.37;;
3547;SDS011;1788;49.400;11.092;2023-11-21T02:56:11;1.77;;;1.67;;
3547;SDS011;1788;49.400;11.092;2023-11-21T02:58:41;1.53;;;1.37;;
3547;SDS011;1788;49.400;11.092;2023-11-21T03:01:04;1.40;;;1.30;;
3547;SDS011;1788;49.400;11.092;2023-11-21T03:03:31;3.23;;;1.63;;
3547;SDS011;1788;49.400;11.092;2023-11-21T03:05:58;2.33;;;1.80;;
3547;SDS011;1788;49.400;11.092;2023-11-21T03:08:26;2.37;;;1.60;;
3547;SDS011;1788;49.400;11.092;2023-11-21T03:10:52;1.67;;;1.30;;
3547;SDS011;1788;49.400;11.092;2023-11-21T03:13:20;4.00;;;1.70;;
3547;SDS011;1788;49.400;11.092;2023-11-21T03:15:47;3.17;;;1.70;;
3547;SDS011;1788;49.400;11.092;2023-11-21T03:18:14;1.63;;;1.53;;
3547;SDS011;1788;49.400;11.092;2023-11-21T03:20:40;3.00;;;1.27;;
3547;SDS011;1788;49.400;11.092;2023-11-21T03:23:07;2.37;;;1.83;;
3547;SDS011;1788;49.400;11.092;2023-11-21T03:25:33;1.90;;;1.50;;
3547;SDS011;1788;49.400;11.092;2023-11-21T03:28:00;1.57;;;1.47;;
3547;SDS011;1788;49.400;11.092;2023-11-21T03:30:27;1.77;;;1.67;;
3547;SDS011;1788;49.400;11.092;2023-11-21T03:32:54;1.60;;;1.50;;
3547;SDS011;1788;49.400;11.092;2023-11-21T03:35:21;1.63;;;1.33;;
3547;SDS011;1788;49.400;11.092;2023-11-21T03:37:47;2.10;;;1.90;;
3547;SDS011;1788;49.400;11.092;2023-11-21T03:40:14;1.80;;;1.53;;
3547;SDS011;1788;49.400;11.092;2023-11-21T03:42:40;2.83;;;1.97;;
3547;SDS011;1788;49.400;11.092;2023-11-21T03:45:08;2.40;;;1.67;;
3547;SDS011;1788;49.400;11.092;2023-11-21T03:47:34;3.77;;;1.70;;
3547;SDS011;1788;49.400;11.092;2023-11-21T03:50:02;1.50;;;1.40;;
3547;SDS011;1788;49.400;11.092;2023-11-21T03:52:29;2.37;;;2.23;;
3547;SDS011;1788;49.400;11.092;2023-11-21T03:54:55;1.67;;;1.57;;
3547;SDS011;1788;49.400;11.092;2023-11-21T03:57:22;4.53;;;1.40;;
3547;SDS011;1788;49.400;11.092;2023-11-21T03:59:48;2.77;;;1.70;;
3547;SDS011;1788;49.400;11.092;2023-11-21T04:02:16;3.07;;;1.63;;
3547;SDS011;1788;49.400;11.092;2023-11-21T04:04:42;1.60;;;1.50;;
3547;SDS011;1788;49.400;11.092;2023-11-21T04:07:10;2.77;;;1.70;;
3547;SDS011;1788;49.400;11.092;2023-11-21T04:09:38;2.00;;;1.10;;
3547;SDS011;1788;49.400;11.092;2023-11-21T04:12:04;2.33;;;2.03;;
3547;SDS011;1788;49.400;11.092;2023-11-21T04:14:32;2.07;;;1.43;;
3547;SDS011;1788;49.400;11.092;2023-11-21T04:16:58;2.03;;;1.50;;
3547;SDS011;1788;49.400;11.092;2023-11-21T04:19:25;1.33;;;1.20;;
3547;SDS011;1788;49.400;11.092;2023-11-21T04:21:51;1.60;;;1.50;;
3547;SDS011;1788;49.400;11.092;2023-11-21T04:24:18;1.77;;;1.67;;
3547;SDS011;1788;49.400;11.092;2023-11-21T04:26:45;2.90;;;1.80;;
3547;SDS011;1788;49.400;11.092;2023-11-21T04:29:11;2.67;;;1.67;;
3547;SDS011;1788;49.400;11.092;2023-11-21T04:31:38;3.27;;;1.50;;
3547;SDS011;1788;49.400;11.092;2023-11-21T04:34:04;2.00;;;1.93;;
3547;SDS011;1788;49.400;11.092;2023-11-21T04:36:32;2.83;;;2.07;;
3547;SDS011;1788;49.400;11.092;2023-11-21T04:38:58;2.37;;;2.00;;
3547;SDS011;1788;49.400;11.092;2023-11-21T04:41:27;2.47;;;1.93;;
3547;SDS011;1788;49.400;11.092;2023-11-21T04:43:53;2.13;;;1.97;;
3547;SDS011;1788;49.400;11.092;2023-11-21T04:46:20;2.30;;;1.97;;
3547;SDS011;1788;49.400;11.092;2023-11-21T04:48:47;4.07;;;2.33;;
3547;SDS011;1788;49.400;11.092;2023-11-21T04:51:13;2.00;;;1.70;;
3547;SDS011;1788;49.400;11.092;2023-11-21T04:53:41;2.23;;;1.90;;
3547;SDS011;1788;49.400;11.092;2023-11-21T04:56:07;3.37;;;2.13;;
3547;SDS011;1788;49.400;11.092;2023-11-21T04:58:34;2.23;;;2.00;;
3547;SDS011;1788;49.400;11.092;2023-11-21T05:01:02;2.37;;;1.70;;
3547;SDS011;1788;49.400;11.092;2023-11-21T05:03:29;1.70;;;1.60;;
3547;SDS011;1788;49.400;11.092;2023-11-21T05:05:56;4.87;;;2.13;;
3547;SDS011;1788;49.400;11.092;2023-11-21T05:08:23;2.43;;;1.80;;
3547;SDS011;1788;49.400;11.092;2023-11-21T05:10:50;2.70;;;1.90;;
3547;SDS011;1788;49.400;11.092;2023-11-21T05:13:17;3.70;;;2.10;;
3547;SDS011;1788;49.400;11.092;2023-11-21T05:15:44;3.47;;;2.30;;
3547;SDS011;1788;49.400;11.092;2023-11-21T05:18:12;3.17;;;2.10;;
3547;SDS011;1788;49.400;11.092;2023-11-21T05:20:39;3.63;;;2.70;;
3547;SDS011;1788;49.400;11.092;2023-11-21T05:23:05;2.60;;;2.40;;
3547;SDS011;1788;49.400;11.092;2023-11-21T05:25:33;2.60;;;2.00;;
3547;SDS011;1788;49.400;11.092;2023-11-21T05:27:59;2.83;;;2.60;;
3547;SDS011;1788;49.400;11.092;2023-11-21T05:30:26;3.10;;;2.20;;
3547;SDS011;1788;49.400;11.092;2023-11-21T05:32:53;4.27;;;2.10;;
3547;SDS011;1788;49.400;11.092;2023-11-21T05:35:20;3.63;;;2.43;;
3547;SDS011;1788;49.400;11.092;2023-11-21T05:37:47;2.93;;;2.10;;
3547;SDS011;1788;49.400;11.092;2023-11-21T05:40:13;5.97;;;2.50;;
3547;SDS011;1788;49.400;11.092;2023-11-21T05:42:40;3.97;;;2.03;;
3547;SDS011;1788;49.400;11.092;2023-11-21T05:45:07;2.53;;;2.07;;
3547;SDS011;1788;49.400;11.092;2023-11-21T05:47:33;3.40;;;1.87;;
3547;SDS011;1788;49.400;11.092;2023-11-21T05:50:00;4.27;;;2.07;;
3547;SDS011;1788;49.400;11.092;2023-11-21T05:52:26;3.10;;;2.37;;
3547;SDS011;1788;49.400;11.092;2023-11-21T05:54:53;3.00;;;2.00;;
3547;SDS011;1788;49.400;11.092;2023-11-21T05:57:19;3.70;;;2.90;;
3547;SDS011;1788;49.400;11.092;2023-11-21T05:59:46;3.47;;;2.03;;
3547;SDS011;1788;49.400;11.092;2023-11-21T06:02:13;4.33;;;2.50;;
3547;SDS011;1788;49.400;11.092;2023-11-21T06:04:40;2.33;;;2.00;;
3547;SDS011;1788;49.400;11.092;2023-11-21T06:07:07;1.83;;;1.73;;
3547;SDS011;1788;49.400;11.092;2023-11-21T06:09:34;2.23;;;2.03;;
3547;SDS011;1788;49.400;11.092;2023-11-21T06:12:01;2.20;;;2.07;;
3547;SDS011;1788;49.400;11.092;2023-11-21T06:14:27;2.13;;;1.93;;
3547;SDS011;1788;49.400;11.092;2023-11-21T06:16:54;4.20;;;2.20;;
3547;SDS011;1788;49.400;11.092;2023-11-21T06:19:20;4.10;;;2.33;;
3547;SDS011;1788;49.400;11.092;2023-11-21T06:21:47;3.97;;;3.00;;
3547;SDS011;1788;49.400;11.092;2023-11-21T06:24:14;4.13;;;2.53;;
3547;SDS011;1788;49.400;11.092;2023-11-21T06:26:40;3.83;;;3.10;;
3547;SDS011;1788;49.400;11.092;2023-11-21T06:29:07;2.93;;;2.57;;
3547;SDS011;1788;49.400;11.092;2023-11-21T06:31:34;3.13;;;2.23;;
3547;SDS011;1788;49.400;11.092;2023-11-21T06:34:01;4.17;;;2.80;;
3547;SDS011;1788;49.400;11.092;2023-11-21T06:36:28;2.73;;;2.17;;
3547;SDS011;1788;49.400;11.092;2023-11-21T06:38:54;2.73;;;2.03;;
3547;SDS011;1788;49.400;11.092;2023-11-21T06:41:21;3.53;;;2.57;;
3547;SDS011;1788;49.400;11.092;2023-11-21T06:43:48;2.53;;;2.23;;
3547;SDS011;1788;49.400;11.092;2023-11-21T06:46:15;4.00;;;2.70;;
3547;SDS011;1788;49.400;11.092;2023-11-21T06:48:42;3.27;;;2.47;;
3547;SDS011;1788;49.400;11.092;2023-11-21T06:51:09;5.07;;;2.90;;
3547;SDS011;1788;49.400;11.092;2023-11-21T06:53:36;3.83;;;2.40;;
3547;SDS011;1788;49.400;11.092;2023-11-21T06:56:03;3.67;;;2.30;;
3547;SDS011;1788;49.400;11.092;2023-11-21T06:58:29;2.77;;;2.57;;
3547;SDS011;1788;49.400;11.092;2023-11-21T07:00:56;2.47;;;2.27;;
3547;SDS011;1788;49.400;11.092;2023-11-21T07:03:23;3.73;;;2.97;;
3547;SDS011;1788;49.400;11.092;2023-11-21T07:05:50;3.43;;;2.60;;
3547;SDS011;1788;49.400;11.092;2023-11-21T07:08:17;5.00;;;3.90;;
3547;SDS011;1788;49.400;11.092;2023-11-21T07:10:44;8.43;;;5.97;;
3547;SDS011;1788;49.400;11.092;2023-11-21T07:13:10;6.97;;;5.60;;
3547;SDS011;1788;49.400;11.092;2023-11-21T07:15:37;6.30;;;5.53;;
3547;SDS011;1788;49.400;11.092;2023-11-21T07:18:04;8.33;;;6.00;;
3547;SDS011;1788;49.400;11.092;2023-11-21T07:20:30;5.43;;;5.10;;
3547;SDS011;1788;49.400;11.092;2023-11-21T07:22:58;4.30;;;4.00;;
3547;SDS011;1788;49.400;11.092;2023-11-21T07:25:24;4.90;;;3.60;;
3547;SDS011;1788;49.400;11.092;2023-11-21T07:27:52;4.00;;;3.60;;
3547;SDS011;1788;49.400;11.092;2023-11-21T07:30:18;5.13;;;4.43;;
3547;SDS011;1788;49.400;11.092;2023-11-21T07:32:45;6.53;;;4.03;;
3547;SDS011;1788;49.400;11.092;2023-11-21T07:35:12;3.37;;;3.20;;
3547;SDS011;1788;49.400;11.092;2023-11-21T07:37:39;3.53;;;3.33;;
3547;SDS011;1788;49.400;11.092;2023-11-21T07:40:06;4.57;;;3.50;;
3547;SDS011;1788;49.400;11.092;2023-11-21T07:42:33;3.87;;;3.47;;
3547;SDS011;1788;49.400;11.092;2023-11-21T07:44:59;4.80;;;3.57;;
3547;SDS011;1788;49.400;11.092;2023-11-21T07:47:26;5.70;;;3.80;;
3547;SDS011;1788;49.400;11.092;2023-11-21T07:49:53;6.03;;;3.90;;
3547;SDS011;1788;49.400;11.092;2023-11-21T07:52:19;5.30;;;3.80;;
3547;SDS011;1788;49.400;11.092;2023-11-21T07:54:46;13.03;;;8.67;;
3547;SDS011;1788;49.400;11.092;2023-11-21T07:57:12;7.57;;;5.90;;
3547;SDS011;1788;49.400;11.092;2023-11-21T07:59:40;5.17;;;3.93;;
3547;SDS011;1788;49.400;11.092;2023-11-21T08:02:06;4.77;;;3.63;;
3547;SDS011;1788;49.400;11.092;2023-11-21T08:04:33;4.87;;;3.97;;
3547;SDS011;1788;49.400;11.092;2023-11-21T08:07:00;6.07;;;3.97;;
3547;SDS011;1788;49.400;11.092;2023-11-21T08:09:27;9.57;;;3.97;;
3547;SDS011;1788;49.400;11.092;2023-11-21T08:11:54;5.60;;;3.43;;
3547;SDS011;1788;49.400;11.092;2023-11-21T08:14:20;5.37;;;3.77;;
3547;SDS011;1788;49.400;11.092;2023-11-21T08:16:47;4.50;;;3.77;;
3547;SDS011;1788;49.400;11.092;2023-11-21T08:19:13;6.97;;;3.67;;
3547;SDS011;1788;49.400;11.092;2023-11-21T08:21:41;8.67;;;4.50;;
3547;SDS011;1788;49.400;11.092;2023-11-21T08:24:08;4.10;;;3.53;;
3547;SDS011;1788;49.400;11.092;2023-11-21T08:26:35;5.47;;;3.50;;
3547;SDS011;1788;49.400;11.092;2023-11-21T08:29:01;4.47;;;3.27;;
3547;SDS011;1788;49.400;11.092;2023-11-21T08:31:28;5.53;;;3.33;;
3547;SDS011;1788;49.400;11.092;2023-11-21T08:33:55;7.87;;;4.53;;
3547;SDS011;1788;49.400;11.092;2023-11-21T08:36:22;6.33;;;4.53;;
3547;SDS011;1788;49.400;11.092;2023-11-21T08:38:49;5.30;;;4.00;;
3547;SDS011;1788;49.400;11.092;2023-11-21T08:41:15;6.60;;;4.30;;
3547;SDS011;1788;49.400;11.092;2023-11-21T08:43:43;6.97;;;4.23;;
3547;SDS011;1788;49.400;11.092;2023-11-21T08:46:09;8.67;;;5.23;;
3547;SDS011;1788;49.400;11.092;2023-11-21T08:48:37;9.10;;;5.90;;
3547;SDS011;1788;49.400;11.092;2023-11-21T08:51:03;6.40;;;4.53;;
3547;SDS011;1788;49.400;11.092;2023-11-21T08:53:30;6.60;;;4.97;;
3547;SDS011;1788;49.400;11.092;2023-11-21T08:55:56;5.47;;;4.40;;
3547;SDS011;1788;49.400;11.092;2023-11-21T08:58:23;7.77;;;4.10;;
3547;SDS011;1788;49.400;11.092;2023-11-21T09:00:50;7.03;;;4.57;;
3547;SDS011;1788;49.400;11.092;2023-11-21T09:03:17;6.73;;;4.20;;
3547;SDS011;1788;49.400;11.092;2023-11-21T09:05:44;6.97;;;4.70;;
3547;SDS011;1788;49.400;11.092;2023-11-21T09:08:11;4.87;;;4.37;;
3547;SDS011;1788;49.400;11.092;2023-11-21T09:10:37;8.13;;;5.30;;
3547;SDS011;1788;49.400;11.092;2023-11-21T09:13:04;8.23;;;4.70;;
3547;SDS011;1788;49.400;11.092;2023-11-21T09:15:31;8.83;;;4.57;;
3547;SDS011;1788;49.400;11.092;2023-11-21T09:17:57;6.10;;;3.93;;
3547;SDS011;1788;49.400;11.092;2023-11-21T09:20:24;5.40;;;4.13;;
3547;SDS011;1788;49.400;11.092;2023-11-21T09:22:51;6.13;;;4.50;;
3547;SDS011;1788;49.400;11.092;2023-11-21T09:25:18;6.77;;;4.93;;
3547;SDS011;1788;49.400;11.092;2023-11-21T09:27:45;6.23;;;4.73;;
3547;SDS011;1788;49.400;11.092;2023-11-21T09:30:12;7.33;;;4.70;;
3547;SDS011;1788;49.400;11.092;2023-11-21T09:32:38;5.90;;;4.53;;
3547;SDS011;1788;49.400;11.092;2023-11-21T09:35:05;7.63;;;4.77;;
3547;SDS011;1788;49.400;11.092;2023-11-21T09:37:32;6.37;;;4.53;;
3547;SDS011;1788;49.400;11.092;2023-11-21T09:39:59;8.53;;;5.27;;
3547;SDS011;1788;49.400;11.092;2023-11-21T09:42:29;7.37;;;5.70;;
3547;SDS011;1788;49.400;11.092;2023-11-21T09:47:20;6.37;;;4.17;;
3547;SDS011;1788;49.400;11.092;2023-11-21T09:49:47;10.13;;;6.00;;
3547;SDS011;1788;49.400;11.092;2023-11-21T09:52:16;6.33;;;5.30;;
3547;SDS011;1788;49.400;11.092;2023-11-21T09:54:40;6.87;;;5.90;;
3547;SDS011;1788;49.400;11.092;2023-11-21T09:57:07;8.90;;;5.90;;
3547;SDS011;1788;49.400;11.092;2023-11-21T09:59:34;11.13;;;6.77;;
3547;SDS011;1788;49.400;11.092;2023-11-21T10:02:01;7.27;;;6.00;;
3547;SDS011;1788;49.400;11.092;2023-11-21T10:04:27;7.03;;;5.63;;
3547;SDS011;1788;49.400;11.092;2023-11-21T10:06:54;8.93;;;6.00;;
3547;SDS011;1788;49.400;11.092;2023-11-21T10:09:21;12.10;;;6.73;;
3547;SDS011;1788;49.400;11.092;2023-11-21T10:11:47;11.93;;;6.90;;
3547;SDS011;1788;49.400;11.092;2023-11-21T10:14:14;12.07;;;7.93;;
3547;SDS011;1788;49.400;11.092;2023-11-21T10:16:41;12.13;;;6.97;;
3547;SDS011;1788;49.400;11.092;2023-11-21T10:21:34;8.90;;;6.67;;
3547;SDS011;1788;49.400;11.092;2023-11-21T10:24:01;9.53;;;6.23;;
3547;SDS011;1788;49.400;11.092;2023-11-21T10:26:28;9.67;;;5.90;;
3547;SDS011;1788;49.400;11.092;2023-11-21T10:31:23;8.77;;;5.40;;
3547;SDS011;1788;49.400;11.092;2023-11-21T10:33:49;8.20;;;5.20;;
3547;SDS011;1788;49.400;11.092;2023-11-21T10:38:42;10.10;;;5.60;;
3547;SDS011;1788;49.400;11.092;2023-11-21T10:43:36;6.20;;;4.53;;
3547;SDS011;1788;49.400;11.092;2023-11-21T10:46:03;6.47;;;5.00;;
3547;SDS011;1788;49.400;11.092;2023-11-21T10:48:30;7.47;;;5.40;;
3547;SDS011;1788;49.400;11.092;2023-11-21T10:50:58;10.30;;;6.20;;
3547;SDS011;1788;49.400;11.092;2023-11-21T10:53:28;9.20;;;6.40;;
3547;SDS011;1788;49.400;11.092;2023-11-21T10:55:54;8.30;;;6.37;;
3547;SDS011;1788;49.400;11.092;2023-11-21T10:58:18;7.67;;;4.80;;
3547;SDS011;1788;49.400;11.092;2023-11-21T11:00:44;4.30;;;4.03;;
3547;SDS011;1788;49.400;11.092;2023-11-21T11:03:11;5.03;;;4.20;;
3547;SDS011;1788;49.400;11.092;2023-11-21T11:05:37;8.17;;;5.20;;
3547;SDS011;1788;49.400;11.092;2023-11-21T11:08:05;6.30;;;4.73;;
3547;SDS011;1788;49.400;11.092;2023-11-21T11:10:32;5.77;;;3.83;;
3547;SDS011;1788;49.400;11.092;2023-11-21T11:12:59;7.37;;;4.17;;
3547;SDS011;1788;49.400;11.092;2023-11-21T11:15:26;5.97;;;4.40;;
3547;SDS011;1788;49.400;11.092;2023-11-21T11:17:52;5.97;;;4.23;;
3547;SDS011;1788;49.400;11.092;2023-11-21T11:20:19;6.43;;;4.37;;
3547;SDS011;1788;49.400;11.092;2023-11-21T11:22:48;5.67;;;4.33;;
3547;SDS011;1788;49.400;11.092;2023-11-21T11:35:03;6.03;;;4.87;;
3547;SDS011;1788;49.400;11.092;2023-11-21T11:37:26;5.50;;;4.30;;
3547;SDS011;1788;49.400;11.092;2023-11-21T11:39:52;5.87;;;4.50;;
3547;SDS011;1788;49.400;11.092;2023-11-21T11:42:20;6.53;;;4.70;;
3547;SDS011;1788;49.400;11.092;2023-11-21T11:44:47;3.87;;;3.67;;
3547;SDS011;1788;49.400;11.092;2023-11-21T11:47:13;7.23;;;4.57;;
3547;SDS011;1788;49.400;11.092;2023-11-21T11:49:54;6.53;;;3.63;;
3547;SDS011;1788;49.400;11.092;2023-11-21T11:57:00;5.17;;;3.50;;
3547;SDS011;1788;49.400;11.092;2023-11-21T11:59:27;5.63;;;4.07;;
3547;SDS011;1788;49.400;11.092;2023-11-21T12:01:54;4.43;;;3.77;;
3547;SDS011;1788;49.400;11.092;2023-11-21T12:04:23;4.17;;;3.73;;
3547;SDS011;1788;49.400;11.092;2023-11-21T12:06:50;4.90;;;3.43;;
3547;SDS011;1788;49.400;11.092;2023-11-21T12:11:41;5.30;;;3.17;;
3547;SDS011;1788;49.400;11.092;2023-11-21T12:14:08;5.03;;;3.30;;
3547;SDS011;1788;49.400;11.092;2023-11-21T12:16:35;4.60;;;3.40;;
3547;SDS011;1788;49.400;11.092;2023-11-21T12:19:02;4.13;;;3.17;;
3547;SDS011;1788;49.400;11.092;2023-11-21T12:21:28;3.93;;;3.13;;
3547;SDS011;1788;49.400;11.092;2023-11-21T12:23:55;3.47;;;2.43;;
3547;SDS011;1788;49.400;11.092;2023-11-21T12:26:23;4.27;;;3.40;;
3547;SDS011;1788;49.400;11.092;2023-11-21T12:31:15;5.50;;;3.47;;
3547;SDS011;1788;49.400;11.092;2023-11-21T12:33:41;4.80;;;3.23;;
3547;SDS011;1788;49.400;11.092;2023-11-21T12:36:08;2.57;;;2.23;;
3547;SDS011;1788;49.400;11.092;2023-11-21T12:38:36;7.67;;;3.87;;
3547;SDS011;1788;49.400;11.092;2023-11-21T12:41:04;3.13;;;2.70;;
3547;SDS011;1788;49.400;11.092;2023-11-21T12:43:31;6.03;;;2.97;;
3547;SDS011;1788;49.400;11.092;2023-11-21T12:48:25;3.87;;;2.77;;
3547;SDS011;1788;49.400;11.092;2023-11-21T12:50:51;3.53;;;2.50;;
3547;SDS011;1788;49.400;11.092;2023-11-21T12:53:18;5.13;;;3.40;;
3547;SDS011;1788;49.400;11.092;2023-11-21T12:55:44;4.03;;;3.03;;
3547;SDS011;1788;49.400;11.092;2023-11-21T12:58:11;4.87;;;2.90;;
3547;SDS011;1788;49.400;11.092;2023-11-21T13:00:38;5.33;;;3.10;;
3547;SDS011;1788;49.400;11.092;2023-11-21T13:03:05;7.20;;;4.10;;
3547;SDS011;1788;49.400;11.092;2023-11-21T13:05:33;5.43;;;3.53;;
3547;SDS011;1788;49.400;11.092;2023-11-21T13:07:59;4.10;;;3.33;;
3547;SDS011;1788;49.400;11.092;2023-11-21T13:10:24;6.03;;;4.53;;
3547;SDS011;1788;49.400;11.092;2023-11-21T13:12:51;7.67;;;4.63;;
3547;SDS011;1788;49.400;11.092;2023-11-21T13:15:17;4.67;;;3.27;;
3547;SDS011;1788;49.400;11.092;2023-11-21T13:17:44;6.57;;;3.90;;
3547;SDS011;1788;49.400;11.092;2023-11-21T13:20:12;5.73;;;4.00;;
3547;SDS011;1788;49.400;11.092;2023-11-21T13:22:39;5.40;;;4.17;;
3547;SDS011;1788;49.400;11.092;2023-11-21T13:25:06;5.17;;;3.97;;
3547;SDS011;1788;49.400;11.092;2023-11-21T13:27:33;5.80;;;4.23;;
3547;SDS011;1788;49.400;11.092;2023-11-21T13:29:59;3.60;;;3.47;;
3547;SDS011;1788;49.400;11.092;2023-11-21T13:32:26;5.60;;;3.23;;
3547;SDS011;1788;49.400;11.092;2023-11-21T13:34:52;9.90;;;6.23;;
3547;SDS011;1788;49.400;11.092;2023-11-21T13:37:19;21.40;;;10.30;;
3547;SDS011;1788;49.400;11.092;2023-11-21T13:39:46;4.83;;;4.57;;
3547;SDS011;1788;49.400;11.092;2023-11-21T13:42:13;3.30;;;3.10;;
3547;SDS011;1788;49.400;11.092;2023-11-21T13:44:40;3.97;;;3.67;;
3547;SDS011;1788;49.400;11.092;2023-11-21T13:47:06;8.20;;;4.83;;
3547;SDS011;1788;49.400;11.092;2023-11-21T13:49:33;4.20;;;3.97;;
3547;SDS011;1788;49.400;11.092;2023-11-21T13:52:00;5.47;;;4.73;;
3547;SDS011;1788;49.400;11.092;2023-11-21T13:54:27;5.00;;;3.97;;
3547;SDS011;1788;49.400;11.092;2023-11-21T13:56:54;5.50;;;4.80;;
3547;SDS011;1788;49.400;11.092;2023-11-21T13:59:21;4.97;;;3.80;;
3547;SDS011;1788;49.400;11.092;2023-11-21T14:01:47;4.63;;;3.53;;
3547;SDS011;1788;49.400;11.092;2023-11-21T14:04:14;5.70;;;3.90;;
3547;SDS011;1788;49.400;11.092;2023-11-21T14:06:42;6.70;;;3.90;;
3547;SDS011;1788;49.400;11.092;2023-11-21T14:09:07;7.07;;;3.90;;
3547;SDS011;1788;49.400;11.092;2023-11-21T14:11:34;6.57;;;3.70;;
3547;SDS011;1788;49.400;11.092;2023-11-21T14:14:01;5.47;;;3.50;;
3547;SDS011;1788;49.400;11.092;2023-11-21T14:16:28;5.90;;;3.43;;
3547;SDS011;1788;49.400;11.092;2023-11-21T14:18:55;3.63;;;3.00;;
3547;SDS011;1788;49.400;11.092;2023-11-21T14:21:21;3.83;;;3.67;;
3547;SDS011;1788;49.400;11.092;2023-11-21T14:23:48;5.33;;;3.47;;
3547;SDS011;1788;49.400;11.092;2023-11-21T14:26:14;5.03;;;3.10;;
3547;SDS011;1788;49.400;11.092;2023-11-21T14:28:41;8.27;;;3.77;;
3547;SDS011;1788;49.400;11.092;2023-11-21T14:31:08;4.23;;;3.37;;
3547;SDS011;1788;49.400;11.092;2023-11-21T14:33:34;5.53;;;3.50;;
3547;SDS011;1788;49.400;11.092;2023-11-21T14:36:01;6.23;;;3.97;;
3547;SDS011;1788;49.400;11.092;2023-11-21T14:38:28;5.30;;;3.80;;
3547;SDS011;1788;49.400;11.092;2023-11-21T14:40:54;6.07;;;3.73;;
3547;SDS011;1788;49.400;11.092;2023-11-21T14:43:22;3.40;;;3.20;;
3547;SDS011;1788;49.400;11.092;2023-11-21T14:45:48;4.87;;;3.60;;
3547;SDS011;1788;49.400;11.092;2023-11-21T14:48:16;4.23;;;3.90;;
3547;SDS011;1788;49.400;11.092;2023-11-21T14:50:42;7.20;;;3.67;;
3547;SDS011;1788;49.400;11.092;2023-11-21T14:53:09;4.47;;;3.40;;
3547;SDS011;1788;49.400;11.092;2023-11-21T14:55:35;6.83;;;3.23;;
3547;SDS011;1788;49.400;11.092;2023-11-21T14:58:02;4.00;;;3.40;;
3547;SDS011;1788;49.400;11.092;2023-11-21T15:00:29;4.90;;;3.30;;
3547;SDS011;1788;49.400;11.092;2023-11-21T15:02:56;3.63;;;2.87;;
3547;SDS011;1788;49.400;11.092;2023-11-21T15:05:23;3.93;;;2.87;;
3547;SDS011;1788;49.400;11.092;2023-11-21T15:07:50;9.37;;;2.90;;
3547;SDS011;1788;49.400;11.092;2023-11-21T15:10:17;4.20;;;3.53;;
3547;SDS011;1788;49.400;11.092;2023-11-21T15:12:43;3.70;;;2.80;;
3547;SDS011;1788;49.400;11.092;2023-11-21T15:15:10;5.63;;;3.57;;
3547;SDS011;1788;49.400;11.092;2023-11-21T15:17:36;6.97;;;4.77;;
3547;SDS011;1788;49.400;11.092;2023-11-21T15:20:03;3.73;;;3.30;;
3547;SDS011;1788;49.400;11.092;2023-11-21T15:22:30;3.97;;;2.50;;
3547;SDS011;1788;49.400;11.092;2023-11-21T15:24:57;6.20;;;4.63;;
3547;SDS011;1788;49.400;11.092;2023-11-21T15:27:24;4.43;;;3.17;;
3547;SDS011;1788;49.400;11.092;2023-11-21T15:29:50;4.27;;;2.77;;
3547;SDS011;1788;49.400;11.092;2023-11-21T15:32:17;3.57;;;2.33;;